Time;durP1;ratioP1;P1;durP2;ratioP2;P2;SDS_P1;SDS_P2;PMS_P1;PMS_P2;Temp;Humidity;BMP_temperature;BMP_pressure;BME280_temperature;BME280_humidity;BME280_pressure;Samples;Min_cycle;Max_cycle;Signal;HPM_P1;HPM_P2
2023/09/16 00:00:33;;;;;;;0.00;0.00;;;;;;;13.87;77.30;99962.03;4969370;28;20029;-78
2023/09/16 00:03:03;;;;;;;0.00;0.00;;;;;;;13.88;77.84;99951.84;4973272;28;20026;-77
2023/09/16 00:05:29;;;;;;;0.00;0.00;;;;;;;13.91;77.85;99959.47;4974019;28;20030;-77
2023/09/16 00:07:55;;;;;;;0.00;0.00;;;;;;;13.89;77.20;99950.72;4964478;28;20080;-76
2023/09/16 00:10:20;;;;;;;0.00;0.00;;;;;;;13.87;77.15;99952.94;4955628;28;20035;-76
2023/09/16 00:12:46;;;;;;;0.00;0.00;;;;;;;13.82;77.51;99948.34;4947100;28;20034;-76
2023/09/16 00:15:11;;;;;;;0.00;0.00;;;;;;;13.83;77.41;99946.41;4941525;28;20482;-75
2023/09/16 00:17:37;;;;;;;0.00;0.00;;;;;;;13.77;77.74;99940.19;4948622;28;20094;-75
2023/09/16 00:20:15;;;;;;;0.00;0.00;;;;;;;13.84;77.65;99959.03;4949355;28;20027;-75
2023/09/16 00:22:47;;;;;;;0.00;0.00;;;;;;;13.76;77.95;99947.59;4948002;28;20102;-75
2023/09/16 00:25:12;;;;;;;0.00;0.00;;;;;;;13.81;77.57;99956.88;4950117;28;20038;-74
2023/09/16 00:27:44;;;;;;;0.00;0.00;;;;;;;13.76;77.76;99952.28;4946439;28;20023;-75
2023/09/16 00:30:09;;;;;;;0.00;0.00;;;;;;;13.73;78.00;99950.97;4947477;28;20074;-76
2023/09/16 00:32:35;;;;;;;0.00;0.00;;;;;;;13.74;78.09;99947.09;4939197;28;20060;-75
2023/09/16 00:35:02;;;;;;;0.00;0.00;;;;;;;13.76;77.92;99947.59;4970256;28;20042;-71
2023/09/16 00:37:28;;;;;;;0.00;0.00;;;;;;;13.81;78.38;99940.41;4944400;28;20042;-71
2023/09/16 00:39:54;;;;;;;0.00;0.00;;;;;;;13.89;78.04;99939.72;4956436;28;20043;-72
2023/09/16 00:42:20;;;;;;;0.00;0.00;;;;;;;13.87;77.92;99929.03;4944609;28;20031;-72
2023/09/16 00:44:46;;;;;;;0.00;0.00;;;;;;;13.97;77.21;99936.28;4946521;28;20027;-71
2023/09/16 00:47:11;;;;;;;0.00;0.00;;;;;;;13.99;77.43;99934.06;4949606;28;20031;-71
2023/09/16 00:49:37;;;;;;;0.00;0.00;;;;;;;14.00;77.04;99937.63;4928875;28;20957;-72
2023/09/16 00:52:02;;;;;;;0.00;0.00;;;;;;;14.02;77.45;99938.13;4949816;28;20162;-71
2023/09/16 00:54:29;;;;;;;0.00;0.00;;;;;;;14.02;77.04;99938.97;4942547;28;20031;-72
2023/09/16 00:56:56;;;;;;;0.00;0.00;;;;;;;14.02;76.90;99930.72;4939398;28;20549;-73
2023/09/16 00:59:23;;;;;;;0.00;0.00;;;;;;;14.05;76.88;99938.34;4945778;28;20023;-71
2023/09/16 01:01:50;;;;;;;0.00;0.00;;;;;;;14.07;77.09;99927.84;4947633;28;20023;-72
2023/09/16 01:04:16;;;;;;;0.00;0.00;;;;;;;14.07;77.22;99936.09;4948820;28;20035;-71
2023/09/16 01:06:47;;;;;;;0.00;0.00;;;;;;;14.05;77.23;99932.84;4940711;28;20031;-70
2023/09/16 01:09:16;;;;;;;0.00;0.00;;;;;;;14.09;77.44;99939.38;4948012;28;20027;-71
2023/09/16 01:11:41;;;;;;;0.00;0.00;;;;;;;14.06;77.00;99917.16;4940033;28;20031;-72
2023/09/16 01:14:11;;;;;;;0.00;0.00;;;;;;;14.13;77.19;99925.84;4948471;28;20493;-70
2023/09/16 01:16:36;;;;;;;0.00;0.00;;;;;;;14.22;76.97;99934.22;4970941;28;20037;-71
2023/09/16 01:19:16;;;;;;;0.00;0.00;;;;;;;14.18;77.47;99919.44;4979787;28;20365;-71
2023/09/16 01:21:42;;;;;;;0.00;0.00;;;;;;;14.21;77.27;99924.34;4985130;28;20455;-71
2023/09/16 01:24:19;;;;;;;0.00;0.00;;;;;;;14.23;77.65;99922.09;4962380;28;20660;-71
2023/09/16 01:26:46;;;;;;;0.00;0.00;;;;;;;14.26;77.17;99921.50;4978511;28;20038;-71
2023/09/16 01:29:12;;;;;;;0.00;0.00;;;;;;;14.22;77.61;99914.97;4977579;28;20040;-70
2023/09/16 01:31:38;;;;;;;0.00;0.00;;;;;;;14.27;77.53;99928.63;4986278;28;20496;-71
2023/09/16 01:34:13;;;;;;;0.00;0.00;;;;;;;14.25;77.75;99925.34;4948729;28;20034;-70
2023/09/16 01:36:40;;;;;;;0.00;0.00;;;;;;;14.23;77.88;99916.59;4986189;28;20437;-70
2023/09/16 01:39:08;;;;;;;0.00;0.00;;;;;;;14.26;77.67;99922.28;4963624;28;20116;-72
2023/09/16 01:41:36;;;;;;;0.00;0.00;;;;;;;14.25;77.86;99914.34;4981521;28;20071;-71
2023/09/16 01:44:02;;;;;;;0.00;0.00;;;;;;;14.27;78.04;99917.63;4963593;28;20030;-72
2023/09/16 01:46:28;;;;;;;0.00;0.00;;;;;;;14.27;78.08;99918.44;4982547;28;20558;-71
2023/09/16 01:48:53;;;;;;;0.00;0.00;;;;;;;14.26;78.40;99918.75;4986914;28;20033;-71
2023/09/16 01:51:19;;;;;;;0.00;0.00;;;;;;;14.25;78.27;99917.09;4950584;28;20389;-70
2023/09/16 01:53:44;;;;;;;0.00;0.00;;;;;;;14.18;78.35;99913.94;4967816;28;20057;-71
2023/09/16 01:56:10;;;;;;;0.00;0.00;;;;;;;14.24;78.20;99921.78;4975413;28;20493;-69
2023/09/16 01:58:35;;;;;;;0.00;0.00;;;;;;;14.23;78.73;99920.16;4968188;28;20018;-71
2023/09/16 02:01:08;;;;;;;0.00;0.00;;;;;;;14.19;78.60;99910.06;4962388;28;20045;-70
2023/09/16 02:03:33;;;;;;;0.00;0.00;;;;;;;14.24;78.68;99912.75;4974428;28;20030;-70
2023/09/16 02:05:59;;;;;;;0.00;0.00;;;;;;;14.18;78.91;99905.69;4991589;28;20125;-71
2023/09/16 02:08:24;;;;;;;0.00;0.00;;;;;;;14.17;78.88;99913.13;4960666;28;20042;-71
2023/09/16 02:10:49;;;;;;;0.00;0.00;;;;;;;14.20;79.22;99917.22;4985088;28;20039;-71
2023/09/16 02:13:15;;;;;;;0.00;0.00;;;;;;;14.21;79.23;99924.34;4961007;28;21703;-72
2023/09/16 02:15:42;;;;;;;0.00;0.00;;;;;;;14.17;79.30;99928.81;4977991;28;20050;-72
2023/09/16 02:18:08;;;;;;;0.00;0.00;;;;;;;14.17;79.70;99926.88;4998381;28;20068;-72
2023/09/16 02:20:33;;;;;;;0.00;0.00;;;;;;;14.19;79.75;99929.31;4977263;28;20070;-73
2023/09/16 02:23:00;;;;;;;0.00;0.00;;;;;;;14.17;79.54;99915.06;4989042;28;20089;-72
2023/09/16 02:25:26;;;;;;;0.00;0.00;;;;;;;14.22;79.89;99918.53;4978119;28;20084;-72
2023/09/16 02:27:51;;;;;;;0.00;0.00;;;;;;;14.26;79.86;99914.03;4977648;28;20042;-71
2023/09/16 02:30:17;;;;;;;0.00;0.00;;;;;;;14.27;80.18;99912.94;4987120;28;20033;-72
2023/09/16 02:32:42;;;;;;;0.00;0.00;;;;;;;14.41;80.30;99914.88;4993338;28;20441;-72
2023/09/16 02:35:07;;;;;;;0.00;0.00;;;;;;;14.50;80.06;99915.81;4983175;28;20051;-73
2023/09/16 02:37:33;;;;;;;0.00;0.00;;;;;;;14.56;80.17;99913.75;4963014;28;20038;-72
2023/09/16 02:39:58;;;;;;;0.00;0.00;;;;;;;14.58;79.79;99922.53;4952252;28;20030;-73
2023/09/16 02:42:24;;;;;;;0.00;0.00;;;;;;;14.58;80.02;99911.53;4980254;28;20038;-72
2023/09/16 02:44:50;;;;;;;0.00;0.00;;;;;;;14.55;79.72;99914.91;4968461;28;20022;-72
2023/09/16 02:47:16;;;;;;;0.00;0.00;;;;;;;14.56;80.06;99916.50;4977446;28;20057;-71
2023/09/16 02:49:41;;;;;;;0.00;0.00;;;;;;;14.58;80.02;99917.03;4960003;28;20030;-71
2023/09/16 02:52:07;;;;;;;0.00;0.00;;;;;;;14.62;79.94;99912.59;4966171;28;20038;-72
2023/09/16 02:54:32;;;;;;;0.00;0.00;;;;;;;14.68;79.70;99914.13;4962314;28;20039;-73
2023/09/16 02:56:57;;;;;;;0.00;0.00;;;;;;;14.70;79.79;99909.13;4946494;28;20436;-72
2023/09/16 02:59:23;;;;;;;0.00;0.00;;;;;;;14.71;79.90;99913.50;4968588;28;20062;-72
2023/09/16 03:01:48;;;;;;;0.00;0.00;;;;;;;14.72;79.93;99901.38;4978983;28;20053;-71
2023/09/16 03:04:14;;;;;;;0.00;0.00;;;;;;;14.75;79.75;99911.78;4987810;28;20062;-71
2023/09/16 03:06:39;;;;;;;0.00;0.00;;;;;;;14.75;80.03;99908.22;4960250;28;20126;-73
2023/09/16 03:09:04;;;;;;;0.00;0.00;;;;;;;14.73;79.59;99908.50;4976777;28;20482;-72
2023/09/16 03:11:30;;;;;;;0.00;0.00;;;;;;;14.72;79.70;99895.88;4957258;28;20101;-72
2023/09/16 03:13:55;;;;;;;0.00;0.00;;;;;;;14.75;79.38;99899.97;4948945;28;20678;-71
2023/09/16 03:16:23;;;;;;;0.00;0.00;;;;;;;14.70;79.56;99892.59;4977572;28;20054;-72
2023/09/16 03:18:50;;;;;;;0.00;0.00;;;;;;;14.69;79.42;99895.66;4978362;28;20026;-71
2023/09/16 03:21:17;;;;;;;0.00;0.00;;;;;;;14.69;79.56;99902.00;4975874;28;20049;-70
2023/09/16 03:23:44;;;;;;;0.00;0.00;;;;;;;14.75;79.57;99905.47;4981283;28;20046;-71
2023/09/16 03:26:10;;;;;;;0.00;0.00;;;;;;;14.70;79.41;99898.09;4980701;28;20482;-71
2023/09/16 03:28:39;;;;;;;0.00;0.00;;;;;;;14.72;79.69;99892.28;4960250;28;20085;-71
2023/09/16 03:31:04;;;;;;;0.00;0.00;;;;;;;14.66;79.72;99891.59;4979935;28;20030;-70
2023/09/16 03:33:31;;;;;;;0.00;0.00;;;;;;;14.61;79.67;99895.25;4944538;28;20473;-70
2023/09/16 03:35:56;;;;;;;0.00;0.00;;;;;;;14.58;79.48;99895.03;4961488;28;20034;-70
2023/09/16 03:38:23;;;;;;;0.00;0.00;;;;;;;14.57;79.90;99891.47;4944923;28;20171;-69
2023/09/16 03:40:50;;;;;;;0.00;0.00;;;;;;;14.57;79.84;99885.13;4976772;28;20092;-70
2023/09/16 03:43:17;;;;;;;0.00;0.00;;;;;;;14.55;79.94;99876.38;4982935;28;20109;-70
2023/09/16 03:45:43;;;;;;;0.00;0.00;;;;;;;14.56;80.45;99876.09;4954591;28;20129;-71
2023/09/16 03:48:08;;;;;;;0.00;0.00;;;;;;;14.59;80.23;99874.66;4982920;28;20049;-71
2023/09/16 03:50:34;;;;;;;0.00;0.00;;;;;;;14.64;80.19;99877.31;4920224;28;20500;-71
2023/09/16 03:52:59;;;;;;;0.00;0.00;;;;;;;14.75;80.05;99877.94;4980468;28;20042;-71
2023/09/16 03:55:25;;;;;;;0.00;0.00;;;;;;;14.82;79.83;99867.31;4964509;28;20045;-72
2023/09/16 03:57:50;;;;;;;0.00;0.00;;;;;;;14.81;79.81;99874.75;4981939;28;20037;-71
2023/09/16 04:00:16;;;;;;;0.00;0.00;;;;;;;14.79;79.95;99868.75;4965648;28;20408;-71
2023/09/16 04:02:41;;;;;;;0.00;0.00;;;;;;;14.78;80.00;99867.13;4961283;28;21510;-74
2023/09/16 04:05:07;;;;;;;0.00;0.00;;;;;;;14.78;80.11;99867.13;4969259;28;20054;-72
2023/09/16 04:07:32;;;;;;;0.00;0.00;;;;;;;14.71;80.29;99872.22;4963595;28;20050;-71
2023/09/16 04:09:58;;;;;;;0.00;0.00;;;;;;;14.64;80.28;99877.31;4987009;28;20022;-71
2023/09/16 04:12:23;;;;;;;0.00;0.00;;;;;;;14.57;80.55;99876.88;4970044;28;20158;-71
2023/09/16 04:14:49;;;;;;;0.00;0.00;;;;;;;14.51;80.70;99878.91;4964702;28;20054;-69
2023/09/16 04:17:14;;;;;;;0.00;0.00;;;;;;;14.48;80.96;99885.88;4970573;28;20459;-72
2023/09/16 04:19:39;;;;;;;0.00;0.00;;;;;;;14.46;81.20;99877.09;4980012;28;20032;-72
2023/09/16 04:22:05;;;;;;;0.00;0.00;;;;;;;14.46;81.23;99888.09;4963423;28;20027;-72
2023/09/16 04:24:30;;;;;;;0.00;0.00;;;;;;;14.42;81.40;99875.25;4950166;28;20032;-72
2023/09/16 04:26:56;;;;;;;0.00;0.00;;;;;;;14.43;81.78;99874.94;4988633;28;20048;-71
2023/09/16 04:29:21;;;;;;;0.00;0.00;;;;;;;14.38;81.78;99874.22;4991209;28;20034;-73
2023/09/16 04:31:47;;;;;;;0.00;0.00;;;;;;;14.37;82.02;99881.69;4988407;28;20049;-71
2023/09/16 04:34:12;;;;;;;0.00;0.00;;;;;;;14.31;82.17;99883.72;4978078;28;20081;-71
2023/09/16 04:36:40;;;;;;;0.00;0.00;;;;;;;14.33;82.56;99888.91;4982934;28;20031;-71
2023/09/16 04:39:05;;;;;;;0.00;0.00;;;;;;;14.30;82.54;99892.28;4982275;28;20062;-72
2023/09/16 04:41:31;;;;;;;0.00;0.00;;;;;;;14.28;83.01;99894.50;4958483;28;20043;-71
2023/09/16 04:43:57;;;;;;;0.00;0.00;;;;;;;14.27;83.36;99903.88;4948583;28;20034;-71
2023/09/16 04:46:23;;;;;;;0.00;0.00;;;;;;;14.22;83.58;99892.97;4979241;28;20163;-71
2023/09/16 04:48:48;;;;;;;0.00;0.00;;;;;;;14.24;83.52;99890.75;4978814;28;20114;-72
2023/09/16 04:51:13;;;;;;;0.00;0.00;;;;;;;14.30;83.92;99889.53;4985361;28;20026;-72
2023/09/16 04:53:39;;;;;;;0.00;0.00;;;;;;;14.36;83.65;99888.28;4973122;28;20035;-71
2023/09/16 04:56:10;;;;;;;0.00;0.00;;;;;;;14.41;83.88;99888.22;4962128;28;20030;-71
2023/09/16 04:58:36;;;;;;;0.00;0.00;;;;;;;14.49;83.58;99881.16;4963648;28;20034;-72
2023/09/16 05:01:05;;;;;;;0.00;0.00;;;;;;;14.62;83.44;99868.56;4983322;28;20069;-71
2023/09/16 05:03:31;;;;;;;0.00;0.00;;;;;;;14.74;83.47;99879.06;4982152;28;20022;-71
2023/09/16 05:05:56;;;;;;;0.00;0.00;;;;;;;14.91;82.94;99879.25;4977542;28;20029;-70
2023/09/16 05:08:22;;;;;;;0.00;0.00;;;;;;;14.99;82.81;99872.19;4986851;28;20109;-72
2023/09/16 05:10:54;;;;;;;0.00;0.00;;;;;;;15.07;82.52;99871.47;4982771;28;20041;-70
2023/09/16 05:13:20;;;;;;;0.00;0.00;;;;;;;15.18;82.34;99881.09;4967370;28;20491;-70
2023/09/16 05:15:49;;;;;;;0.00;0.00;;;;;;;15.25;81.71;99880.69;4948537;28;20040;-71
2023/09/16 05:18:16;;;;;;;0.00;0.00;;;;;;;15.26;81.19;99875.97;4943313;28;20665;-71
2023/09/16 05:20:41;;;;;;;0.00;0.00;;;;;;;15.30;81.42;99877.00;4945492;28;20163;-71
2023/09/16 05:23:06;;;;;;;0.00;0.00;;;;;;;15.31;81.11;99879.44;4922724;28;21246;-71
2023/09/16 05:25:32;;;;;;;0.00;0.00;;;;;;;15.33;80.82;99890.13;4946618;28;20027;-70
2023/09/16 05:27:57;;;;;;;0.00;0.00;;;;;;;15.31;80.85;99889.66;4952288;28;20534;-71
2023/09/16 05:30:23;;;;;;;0.00;0.00;;;;;;;15.25;80.81;99893.66;4961976;28;20035;-70
2023/09/16 05:32:48;;;;;;;0.00;0.00;;;;;;;15.26;81.08;99896.09;4960879;28;20039;-71
2023/09/16 05:35:13;;;;;;;0.00;0.00;;;;;;;15.26;80.80;99903.53;4920971;28;20517;-71
2023/09/16 05:37:39;;;;;;;0.00;0.00;;;;;;;15.32;80.86;99910.56;4945826;28;20035;-71
2023/09/16 05:40:05;;;;;;;0.00;0.00;;;;;;;15.29;80.63;99902.94;4943722;28;20078;-70
2023/09/16 05:42:31;;;;;;;0.00;0.00;;;;;;;15.32;80.72;99902.31;4939457;28;20027;-71
2023/09/16 05:44:57;;;;;;;0.00;0.00;;;;;;;15.34;80.48;99906.34;4953405;28;20098;-71
2023/09/16 05:47:23;;;;;;;0.00;0.00;;;;;;;15.37;80.68;99904.94;4939007;28;20834;-70
2023/09/16 05:49:48;;;;;;;0.00;0.00;;;;;;;15.36;80.28;99914.31;4954560;28;20031;-73
2023/09/16 05:52:14;;;;;;;0.00;0.00;;;;;;;15.31;80.25;99911.69;4942979;28;20118;-74
2023/09/16 05:54:39;;;;;;;0.00;0.00;;;;;;;15.29;80.12;99913.94;4943553;28;20389;-73
2023/09/16 05:57:05;;;;;;;0.00;0.00;;;;;;;15.26;80.39;99917.28;4925181;28;20037;-70
2023/09/16 05:59:30;;;;;;;0.00;0.00;;;;;;;15.25;80.24;99918.44;4955322;28;20039;-71
2023/09/16 06:01:55;;;;;;;0.00;0.00;;;;;;;15.26;79.92;99914.53;4939267;28;20042;-73
2023/09/16 06:04:21;;;;;;;0.00;0.00;;;;;;;15.25;80.29;99912.94;4934405;28;20027;-71
2023/09/16 06:06:49;;;;;;;0.00;0.00;;;;;;;15.28;79.94;99923.31;4939726;28;20039;-71
2023/09/16 06:09:14;;;;;;;0.00;0.00;;;;;;;15.32;79.96;99921.59;4938040;28;20031;-70
2023/09/16 06:11:40;;;;;;;0.00;0.00;;;;;;;15.39;79.69;99933.00;4938451;28;20066;-72
2023/09/16 06:14:05;;;;;;;0.00;0.00;;;;;;;15.35;79.65;99929.22;4941635;28;20485;-71
2023/09/16 06:16:31;;;;;;;0.00;0.00;;;;;;;15.39;79.92;99935.75;4957311;28;20055;-71
2023/09/16 06:18:56;;;;;;;0.00;0.00;;;;;;;15.40;79.58;99934.59;4955354;28;20082;-70
2023/09/16 06:21:22;;;;;;;0.00;0.00;;;;;;;15.39;79.86;99929.41;4950959;28;20082;-70
2023/09/16 06:23:47;;;;;;;0.00;0.00;;;;;;;15.44;79.67;99932.06;4962488;28;20031;-70
2023/09/16 06:26:13;;;;;;;0.00;0.00;;;;;;;15.50;79.50;99939.88;4958639;28;20493;-71
2023/09/16 06:28:39;;;;;;;0.00;0.00;;;;;;;15.53;79.50;99939.25;4962023;28;20034;-71
2023/09/16 06:31:04;;;;;;;0.00;0.00;;;;;;;15.57;79.32;99941.41;4962069;28;20490;-71
2023/09/16 06:33:30;;;;;;;0.00;0.00;;;;;;;15.62;79.29;99944.84;4974973;28;20042;-71
2023/09/16 06:35:55;;;;;;;0.00;0.00;;;;;;;15.72;79.09;99954.81;4963648;28;20034;-70
2023/09/16 06:38:20;;;;;;;0.00;0.00;;;;;;;15.80;78.88;99956.88;4954969;28;20501;-72
2023/09/16 06:40:46;;;;;;;0.00;0.00;;;;;;;15.92;78.28;99947.22;4976945;28;20070;-71
2023/09/16 06:43:11;;;;;;;0.00;0.00;;;;;;;15.97;78.10;99958.91;4943900;28;20035;-71
2023/09/16 06:45:37;;;;;;;0.00;0.00;;;;;;;16.15;77.52;99968.16;4974757;28;20030;-71
2023/09/16 06:48:02;;;;;;;0.00;0.00;;;;;;;16.27;77.46;99969.53;4959888;28;20034;-71
2023/09/16 06:50:28;;;;;;;0.00;0.00;;;;;;;16.34;77.37;99978.13;4952595;28;20174;-71
2023/09/16 06:52:53;;;;;;;0.00;0.00;;;;;;;16.39;77.19;99989.84;4959155;28;20098;-73
2023/09/16 06:55:18;;;;;;;0.00;0.00;;;;;;;16.28;77.04;99990.44;4955752;28;20027;-72
2023/09/16 06:57:44;;;;;;;0.00;0.00;;;;;;;16.13;76.70;99997.16;4958973;28;20477;-72
2023/09/16 07:00:10;;;;;;;0.00;0.00;;;;;;;16.09;77.09;99982.38;4972563;28;20121;-73
2023/09/16 07:02:36;;;;;;;0.00;0.00;;;;;;;16.26;77.27;99993.50;4955604;28;20019;-72
2023/09/16 07:05:02;;;;;;;0.00;0.00;;;;;;;16.39;76.65;99997.34;4940531;28;20390;-70
2023/09/16 07:07:28;;;;;;;0.00;0.00;;;;;;;16.52;76.44;100015.75;4957945;28;20512;-70
2023/09/16 07:09:55;;;;;;;0.00;0.00;;;;;;;16.54;76.50;100008.00;4960752;28;20053;-71
2023/09/16 07:12:21;;;;;;;0.00;0.00;;;;;;;16.58;76.08;100028.28;4963207;28;20054;-70
2023/09/16 07:14:46;;;;;;;0.00;0.00;;;;;;;16.56;77.08;100029.75;4966917;28;20759;-72
2023/09/16 07:17:11;;;;;;;0.00;0.00;;;;;;;16.58;76.99;100042.09;4913975;29;20063;-69
2023/09/16 07:19:37;;;;;;;0.00;0.00;;;;;;;16.65;77.03;100035.31;4933345;28;20027;-74
2023/09/16 07:22:03;;;;;;;0.00;0.00;;;;;;;16.77;76.66;100021.72;4921044;28;20078;-71
2023/09/16 07:24:28;;;;;;;0.00;0.00;;;;;;;17.08;76.58;100021.75;4918694;28;20118;-71
2023/09/16 07:26:54;;;;;;;0.00;0.00;;;;;;;17.37;75.75;100038.88;4931206;28;20058;-75
2023/09/16 07:29:20;;;;;;;0.00;0.00;;;;;;;17.61;74.59;100039.25;4896888;29;20035;-75
2023/09/16 07:31:45;;;;;;;0.00;0.00;;;;;;;17.71;74.18;100021.56;4911765;29;20031;-73
2023/09/16 07:34:11;;;;;;;0.00;0.00;;;;;;;18.07;73.66;100042.56;4926819;28;20031;-74
2023/09/16 07:36:37;;;;;;;0.00;0.00;;;;;;;18.29;72.77;100043.53;4941364;28;20071;-74
2023/09/16 07:39:02;;;;;;;0.00;0.00;;;;;;;18.46;72.28;100040.75;4944810;28;20023;-74
2023/09/16 07:41:31;;;;;;;0.00;0.00;;;;;;;18.58;71.47;100031.75;4911964;28;20896;-75
2023/09/16 07:43:56;;;;;;;0.00;0.00;;;;;;;18.89;70.62;100041.78;4943263;28;20043;-75
2023/09/16 07:46:22;;;;;;;0.00;0.00;;;;;;;19.17;69.95;100041.34;4947106;28;20031;-74
2023/09/16 07:48:47;;;;;;;0.00;0.00;;;;;;;19.36;69.44;100038.97;4942955;28;20027;-75
2023/09/16 07:51:12;;;;;;;0.00;0.00;;;;;;;19.71;68.65;100049.03;4914523;29;20027;-75
2023/09/16 07:53:41;;;;;;;0.00;0.00;;;;;;;19.86;67.97;100048.47;4926721;28;20050;-76
2023/09/16 07:56:09;;;;;;;0.00;0.00;;;;;;;19.78;67.01;100024.38;4943632;28;20059;-75
2023/09/16 07:58:34;;;;;;;0.00;0.00;;;;;;;20.02;66.63;100032.03;4910117;28;20046;-76
2023/09/16 08:01:05;;;;;;;0.00;0.00;;;;;;;20.39;66.28;100051.59;4925232;28;21308;-75
2023/09/16 08:03:31;;;;;;;0.00;0.00;;;;;;;20.49;65.30;100044.00;4942967;28;20087;-75
2023/09/16 08:05:57;;;;;;;0.00;0.00;;;;;;;20.73;65.13;100044.09;4940764;28;20449;-76
2023/09/16 08:08:26;;;;;;;0.00;0.00;;;;;;;21.29;64.22;100042.75;4934123;29;20125;-76
2023/09/16 08:10:51;;;;;;;0.00;0.00;;;;;;;22.34;62.80;100041.19;4927380;28;20470;-77
2023/09/16 08:13:20;;;;;;;0.00;0.00;;;;;;;24.82;54.91;100046.06;4930108;29;20042;-75
2023/09/16 08:15:46;;;;;;;0.00;0.00;;;;;;;27.16;50.35;100053.97;4939094;28;20062;-75
2023/09/16 08:18:12;;;;;;;0.00;0.00;;;;;;;29.75;44.56;100043.53;4927387;29;20027;-75
2023/09/16 08:20:37;;;;;;;0.00;0.00;;;;;;;31.26;40.74;100058.06;4930326;29;20363;-75
2023/09/16 08:23:03;;;;;;;0.00;0.00;;;;;;;33.42;37.31;100060.94;4924630;28;20051;-74
2023/09/16 08:25:28;;;;;;;0.00;0.00;;;;;;;34.67;34.68;100045.47;4940417;29;20034;-73
2023/09/16 08:27:53;;;;;;;0.00;0.00;;;;;;;36.20;32.84;100061.00;4926658;28;20145;-74
2023/09/16 08:30:21;;;;;;;0.00;0.00;;;;;;;37.41;30.50;100048.22;4945111;28;20427;-75
2023/09/16 08:32:49;;;;;;;0.00;0.00;;;;;;;38.07;29.45;100031.94;4934707;28;20118;-75
2023/09/16 08:35:15;;;;;;;0.00;0.00;;;;;;;38.72;27.75;100032.28;4948897;28;20027;-74
2023/09/16 08:37:49;;;;;;;0.00;0.00;;;;;;;38.32;26.66;100050.19;4942593;28;20046;-75
2023/09/16 08:40:17;;;;;;;0.00;0.00;;;;;;;38.75;26.43;100042.78;4929036;28;20046;-76
2023/09/16 08:43:05;;;;;;;0.00;0.00;;;;;;;38.58;26.19;100047.13;4924055;29;20027;-75
2023/09/16 08:45:37;;;;;;;0.00;0.00;;;;;;;36.89;27.78;100048.31;4941422;28;20040;-74
2023/09/16 08:48:08;;;;;;;0.00;0.00;;;;;;;34.62;30.28;100028.94;4929526;29;20517;-75
2023/09/16 08:50:35;;;;;;;0.00;0.00;;;;;;;33.67;31.02;100025.66;4930846;28;20031;-74
2023/09/16 08:53:07;;;;;;;0.00;0.00;;;;;;;31.83;33.20;100023.59;4933140;29;20498;-75
2023/09/16 08:55:34;;;;;;;0.00;0.00;;;;;;;30.30;35.35;100024.44;4931871;29;20232;-75
2023/09/16 08:58:10;;;;;;;0.00;0.00;;;;;;;28.92;37.63;100008.22;4915166;28;20028;-75
2023/09/16 09:00:37;;;;;;;0.00;0.00;;;;;;;27.94;39.58;100012.78;4916782;29;20034;-75
2023/09/16 09:03:03;;;;;;;0.00;0.00;;;;;;;27.19;40.72;100019.53;4949149;28;20031;-75
2023/09/16 09:05:29;;;;;;;0.00;0.00;;;;;;;26.62;42.91;100023.41;4951334;28;20031;-75
2023/09/16 09:07:54;;;;;;;0.00;0.00;;;;;;;26.25;43.98;100021.41;4918215;28;20390;-74
2023/09/16 09:10:20;;;;;;;0.00;0.00;;;;;;;25.94;44.71;100012.22;4947089;28;20038;-75
2023/09/16 09:12:46;;;;;;;0.00;0.00;;;;;;;25.93;45.41;100007.00;4926639;28;20489;-75
2023/09/16 09:15:13;;;;;;;0.00;0.00;;;;;;;26.15;45.50;100012.88;4901128;29;20075;-75
2023/09/16 09:17:48;;;;;;;0.00;0.00;;;;;;;26.68;45.23;100025.88;4943512;28;20096;-74
2023/09/16 09:20:23;;;;;;;0.00;0.00;;;;;;;28.54;43.10;100022.63;4922570;29;20046;-74
2023/09/16 09:22:51;;;;;;;0.00;0.00;;;;;;;30.76;38.80;100031.81;4926502;28;20042;-75
2023/09/16 09:25:24;;;;;;;0.00;0.00;;;;;;;31.36;37.05;100028.91;4932943;29;20095;-75
2023/09/16 09:27:51;;;;;;;0.00;0.00;;;;;;;32.40;35.76;100024.09;4956535;28;20117;-75
2023/09/16 09:30:24;;;;;;;0.00;0.00;;;;;;;33.70;33.94;100019.94;4929046;28;20031;-75
2023/09/16 09:32:50;;;;;;;0.00;0.00;;;;;;;33.82;32.77;100018.50;4947157;28;20050;-74
2023/09/16 09:35:20;;;;;;;0.00;0.00;;;;;;;32.75;34.27;100019.16;4943351;28;20038;-74
2023/09/16 09:37:47;;;;;;;0.00;0.00;;;;;;;31.57;35.40;100010.16;4949452;28;20035;-74
2023/09/16 09:40:13;;;;;;;0.00;0.00;;;;;;;30.52;37.06;100015.84;4931072;29;20082;-74
2023/09/16 09:42:44;;;;;;;0.00;0.00;;;;;;;29.60;38.39;100011.78;4917036;28;20031;-74
2023/09/16 09:45:10;;;;;;;0.00;0.00;;;;;;;28.95;39.28;100022.28;4930745;29;20474;-74
2023/09/16 09:47:40;;;;;;;0.00;0.00;;;;;;;28.53;39.96;100015.38;4942387;28;20034;-75
2023/09/16 09:50:13;;;;;;;0.00;0.00;;;;;;;28.59;40.54;100015.81;4926321;28;20036;-75
2023/09/16 09:52:39;;;;;;;0.00;0.00;;;;;;;28.60;40.78;100021.03;4937945;28;20011;-75
2023/09/16 09:55:05;;;;;;;0.00;0.00;;;;;;;28.58;41.39;100006.56;4912829;28;20470;-75
2023/09/16 09:57:30;;;;;;;0.00;0.00;;;;;;;29.00;40.74;100024.72;4928090;28;20074;-75
2023/09/16 09:59:57;;;;;;;0.00;0.00;;;;;;;29.35;40.50;100020.31;4951842;28;20031;-74
2023/09/16 10:02:26;;;;;;;0.00;0.00;;;;;;;29.63;40.44;100015.00;4943412;28;20038;-75
2023/09/16 10:04:59;;;;;;;0.00;0.00;;;;;;;29.96;40.09;100024.19;4921304;29;20046;-75
2023/09/16 10:07:32;;;;;;;0.00;0.00;;;;;;;29.83;39.62;100023.81;4903289;28;20028;-75
2023/09/16 10:09:58;;;;;;;0.00;0.00;;;;;;;29.58;39.84;100019.03;4946999;28;20020;-75
2023/09/16 10:12:24;;;;;;;0.00;0.00;;;;;;;29.10;39.59;100025.91;4930869;28;20031;-75
2023/09/16 10:14:51;;;;;;;0.00;0.00;;;;;;;28.69;40.06;100012.22;4933981;28;20052;-74
2023/09/16 10:17:17;;;;;;;0.00;0.00;;;;;;;28.63;40.24;100020.25;4938730;28;20086;-74
2023/09/16 10:19:43;;;;;;;0.00;0.00;;;;;;;28.82;40.34;100018.28;4938540;28;20031;-74
2023/09/16 10:22:11;;;;;;;0.00;0.00;;;;;;;29.11;39.64;100027.53;4930706;29;20031;-75
2023/09/16 10:24:39;;;;;;;0.00;0.00;;;;;;;28.87;39.62;100023.50;4943330;28;20126;-74
2023/09/16 10:27:10;;;;;;;0.00;0.00;;;;;;;28.49;40.11;100020.19;4939729;28;20031;-75
2023/09/16 10:29:37;;;;;;;0.00;0.00;;;;;;;28.20;40.14;100020.94;4942972;28;20035;-74
2023/09/16 10:32:02;;;;;;;0.00;0.00;;;;;;;28.00;40.89;100016.84;4926326;28;20027;-74
2023/09/16 10:34:30;;;;;;;0.00;0.00;;;;;;;27.65;41.56;100002.19;4928720;28;20038;-75
2023/09/16 10:36:56;;;;;;;0.00;0.00;;;;;;;27.54;42.19;100011.75;4945154;28;20462;-74
2023/09/16 10:39:22;;;;;;;0.00;0.00;;;;;;;27.38;42.25;100012.06;4905767;29;20032;-75
2023/09/16 10:41:48;;;;;;;0.00;0.00;;;;;;;27.21;42.44;100017.13;4943310;28;20078;-74
2023/09/16 10:44:15;;;;;;;0.00;0.00;;;;;;;27.05;43.45;100019.44;4945494;28;20489;-75
2023/09/16 10:46:43;;;;;;;0.00;0.00;;;;;;;26.93;43.25;100012.91;4942400;28;20797;-75
2023/09/16 10:49:08;;;;;;;0.00;0.00;;;;;;;26.93;43.44;100017.72;4941888;28;20035;-74
2023/09/16 10:51:42;;;;;;;0.00;0.00;;;;;;;26.76;43.72;100019.16;4912437;28;20324;-74
2023/09/16 10:54:31;;;;;;;0.00;0.00;;;;;;;26.73;43.74;100020.75;4943230;28;20023;-74
2023/09/16 10:56:59;;;;;;;0.00;0.00;;;;;;;26.67;43.64;100015.84;4930515;28;20032;-74
2023/09/16 10:59:28;;;;;;;0.00;0.00;;;;;;;26.58;43.47;100014.16;4941257;28;20074;-75
2023/09/16 11:02:14;;;;;;;0.00;0.00;;;;;;;26.56;43.37;100018.53;4936433;28;20028;-74
2023/09/16 11:04:39;;;;;;;0.00;0.00;;;;;;;26.68;43.35;100017.47;4945549;28;20023;-74
2023/09/16 11:07:05;;;;;;;0.00;0.00;;;;;;;26.84;43.20;100026.47;4932299;29;20542;-74
2023/09/16 11:09:30;;;;;;;0.00;0.00;;;;;;;26.86;43.09;100018.47;4923154;28;20994;-75
2023/09/16 11:11:57;;;;;;;0.00;0.00;;;;;;;26.90;43.33;100024.13;4947869;28;20023;-75
2023/09/16 11:14:23;;;;;;;0.00;0.00;;;;;;;26.86;42.77;100026.88;4910371;28;21372;-74
2023/09/16 11:16:51;;;;;;;0.00;0.00;;;;;;;26.86;43.00;100035.28;4962771;28;20029;-74
2023/09/16 11:19:21;;;;;;;0.00;0.00;;;;;;;26.67;43.25;100035.47;4965950;28;20118;-74
2023/09/16 11:21:47;;;;;;;0.00;0.00;;;;;;;26.41;43.21;100028.81;4965255;28;20046;-74
2023/09/16 11:24:12;;;;;;;0.00;0.00;;;;;;;26.15;44.06;100030.50;4955008;28;20054;-75
2023/09/16 11:26:39;;;;;;;0.00;0.00;;;;;;;26.01;43.90;100041.56;4961549;28;20025;-75